createdAt,value
2019-01-16T00:00:26.381Z,8.57
2019-01-16T00:03:40.559Z,7.53
2019-01-16T00:07:00.708Z,7.63
2019-01-16T00:10:08.833Z,8.50
2019-01-16T00:13:13.893Z,8.17
2019-01-16T00:16:35.017Z,6.80
2019-01-16T00:19:45.873Z,7.27
2019-01-16T00:23:02.673Z,6.83
2019-01-16T00:26:23.801Z,7.50
2019-01-16T00:29:34.653Z,6.90
2019-01-16T00:32:39.757Z,8.60
2019-01-16T00:35:47.795Z,6.53
2019-01-16T00:39:07.965Z,5.97
2019-01-16T00:42:13.036Z,7.87
2019-01-16T00:45:23.752Z,6.67
2019-01-16T00:48:28.820Z,7.80
2019-01-16T00:51:36.634Z,7.27
2019-01-16T00:54:59.628Z,8.70
2019-01-16T00:58:07.640Z,11.37
2019-01-16T01:01:15.509Z,10.63
2019-01-16T01:04:23.508Z,8.77
2019-01-16T01:07:44.426Z,9.53
2019-01-16T01:10:55.077Z,10.63
2019-01-16T01:14:00.125Z,8.20
2019-01-16T01:17:10.905Z,7.27
2019-01-16T01:20:18.640Z,7.07
2019-01-16T01:23:35.817Z,6.53
2019-01-16T01:26:56.853Z,7.03
2019-01-16T01:30:07.643Z,7.20
2019-01-16T01:33:21.100Z,6.17
2019-01-16T01:36:38.059Z,6.53
2019-01-16T01:39:45.808Z,6.60
2019-01-16T01:42:50.899Z,6.37
2019-01-16T01:46:12.308Z,7.37
2019-01-16T01:49:26.369Z,6.93
2019-01-16T01:52:34.212Z,7.50
2019-01-16T01:55:48.308Z,6.87
2019-01-16T01:58:56.116Z,9.80
2019-01-16T02:02:10.143Z,6.07
2019-01-16T02:05:27.304Z,8.57
2019-01-16T02:08:48.398Z,7.50
2019-01-16T02:12:09.879Z,7.33
2019-01-16T02:15:18.070Z,7.40
2019-01-16T02:18:47.183Z,7.83
2019-01-16T02:21:47.486Z,8.50
2019-01-16T02:25:10.236Z,6.77
2019-01-16T02:28:21.085Z,6.23
2019-01-16T02:31:26.132Z,6.83
2019-01-16T02:34:31.230Z,6.40
2019-01-16T02:37:38.993Z,6.27
2019-01-16T02:40:50.075Z,6.93
2019-01-16T02:43:55.146Z,6.17
2019-01-16T02:47:05.992Z,6.20
2019-01-16T02:50:17.058Z,5.63
2019-01-16T02:53:22.147Z,5.30
2019-01-16T02:56:33.209Z,5.87
2019-01-16T02:59:53.325Z,5.97
2019-01-16T03:03:14.468Z,5.27
2019-01-16T03:06:31.476Z,6.00
2019-01-16T03:09:36.544Z,6.07
2019-01-16T03:12:47.573Z,6.87
2019-01-16T03:15:55.309Z,6.10
2019-01-16T03:19:06.400Z,6.23
2019-01-16T03:22:17.328Z,6.40
2019-01-16T03:25:38.641Z,8.60
2019-01-16T03:28:46.729Z,6.90
2019-01-16T03:32:06.281Z,7.17
2019-01-16T03:35:23.612Z,7.63
2019-01-16T03:38:28.685Z,6.70
2019-01-16T03:41:39.714Z,7.20
2019-01-16T03:44:44.794Z,6.43
2019-01-16T03:48:04.733Z,7.30
2019-01-16T03:51:15.488Z,6.63
2019-01-16T03:54:20.572Z,6.53
2019-01-16T03:57:25.642Z,6.83
2019-01-16T04:00:30.716Z,8.63
2019-01-16T04:03:53.972Z,7.77
2019-01-16T04:06:59.063Z,6.43
2019-01-16T04:10:19.939Z,7.17
2019-01-16T04:13:40.968Z,7.27
2019-01-16T04:16:48.734Z,7.40
2019-01-16T04:20:02.498Z,6.67
2019-01-16T04:23:23.794Z,7.07
2019-01-16T04:26:28.840Z,8.23
2019-01-16T04:29:42.721Z,9.13
2019-01-16T04:32:47.804Z,7.27
2019-01-16T04:36:01.952Z,8.63
2019-01-16T04:39:14.225Z,8.67
2019-01-16T04:42:37.082Z,8.80
2019-01-16T04:45:42.157Z,7.27
2019-01-16T04:48:56.020Z,6.93
2019-01-16T04:52:03.785Z,7.73
2019-01-16T04:55:08.971Z,7.17
2019-01-16T04:58:23.112Z,7.70
2019-01-16T05:01:30.899Z,8.00
2019-01-16T05:04:52.030Z,8.30
2019-01-16T05:08:06.168Z,6.87
2019-01-16T05:11:23.369Z,7.87
2019-01-16T05:14:28.464Z,8.97
2019-01-16T05:17:49.679Z,6.83
2019-01-16T05:21:10.976Z,7.87
2019-01-16T05:24:32.320Z,6.67
2019-01-16T05:27:43.314Z,8.70
2019-01-16T05:31:04.412Z,7.03
2019-01-16T05:34:18.580Z,7.10
2019-01-16T05:37:29.656Z,6.53
2019-01-16T05:40:34.696Z,6.73
2019-01-16T05:43:42.481Z,6.27
2019-01-16T05:46:59.465Z,6.10
2019-01-16T05:50:13.177Z,5.93
2019-01-16T05:53:18.222Z,5.13
2019-01-16T05:56:32.089Z,5.70
2019-01-16T05:59:46.093Z,12.37
2019-01-16T06:02:51.135Z,5.53
2019-01-16T06:06:12.222Z,5.57
2019-01-16T06:09:20.152Z,5.83
2019-01-16T06:12:34.104Z,5.03
2019-01-16T06:15:54.240Z,5.60
2019-01-16T06:19:02.004Z,6.07
2019-01-16T06:22:19.157Z,6.70
2019-01-16T06:25:39.356Z,5.50
2019-01-16T06:28:44.463Z,5.03
2019-01-16T06:32:04.289Z,5.60
2019-01-16T06:35:15.172Z,5.73
2019-01-16T06:38:29.209Z,5.10
2019-01-16T06:41:34.280Z,5.07
2019-01-16T06:44:54.174Z,4.47
2019-01-16T06:48:07.948Z,4.80
2019-01-16T06:51:13.038Z,5.30
2019-01-16T06:54:18.084Z,4.87
2019-01-16T06:57:38.003Z,4.50
2019-01-16T07:00:45.869Z,4.67
2019-01-16T07:03:50.942Z,5.03
2019-01-16T07:06:59.018Z,5.93
2019-01-16T07:10:04.148Z,5.33
2019-01-16T07:13:09.196Z,6.03
2019-01-16T07:16:14.260Z,5.30
2019-01-16T07:19:35.332Z,5.53
2019-01-16T07:22:56.336Z,6.80
2019-01-16T07:26:17.206Z,6.07
2019-01-16T07:29:25.189Z,7.40
2019-01-16T07:32:30.379Z,5.63
2019-01-16T07:35:47.438Z,5.37
2019-01-16T07:39:08.505Z,6.20
2019-01-16T07:42:19.260Z,5.53
2019-01-16T07:45:33.152Z,5.87
2019-01-16T07:48:44.204Z,6.00
2019-01-16T07:51:49.299Z,7.73
2019-01-16T07:54:57.306Z,8.23
2019-01-16T07:58:18.654Z,7.53
2019-01-16T08:01:23.731Z,5.87
2019-01-16T08:04:37.931Z,7.50
2019-01-16T08:07:45.706Z,8.23
2019-01-16T08:11:06.972Z,6.30
2019-01-16T08:14:28.144Z,6.97
2019-01-16T08:17:33.246Z,7.77
2019-01-16T08:20:54.123Z,8.20
2019-01-16T08:24:08.260Z,9.37
2019-01-16T08:27:16.040Z,8.13
2019-01-16T08:30:21.212Z,7.80
2019-01-16T08:33:43.780Z,8.37
2019-01-16T08:36:57.823Z,8.57
2019-01-16T08:40:08.885Z,8.90
2019-01-16T08:43:26.060Z,7.47
2019-01-16T08:46:36.815Z,9.60
2019-01-16T08:49:57.933Z,7.03
2019-01-16T08:53:05.922Z,7.80
2019-01-16T08:56:27.020Z,7.13
2019-01-16T08:59:48.267Z,7.47
2019-01-16T09:03:05.340Z,7.17
2019-01-16T09:06:13.310Z,6.47
2019-01-16T09:09:26.940Z,7.67
2019-01-16T09:12:34.968Z,6.33
2019-01-16T09:15:40.079Z,6.93
2019-01-16T09:18:50.820Z,6.70
2019-01-16T09:21:58.879Z,7.10
2019-01-16T09:25:03.979Z,7.20
2019-01-16T09:28:24.833Z,8.43
2019-01-16T09:31:41.766Z,9.20
2019-01-16T09:34:46.824Z,7.33
2019-01-16T09:38:06.768Z,6.37
2019-01-16T09:41:27.569Z,7.93
2019-01-16T09:44:47.481Z,6.73
2019-01-16T09:47:55.569Z,8.47
2019-01-16T09:51:06.462Z,8.40
2019-01-16T09:54:11.544Z,8.27
2019-01-16T09:57:31.413Z,7.43
2019-01-16T10:00:51.266Z,7.33
2019-01-16T10:04:05.113Z,7.17
2019-01-16T10:07:15.939Z,7.97
2019-01-16T10:10:21.048Z,10.20
2019-01-16T10:13:26.106Z,7.50
2019-01-16T10:16:31.176Z,7.67
2019-01-16T10:19:36.226Z,7.07
2019-01-16T10:22:47.020Z,8.13
2019-01-16T10:25:52.067Z,9.53
2019-01-16T10:29:02.744Z,9.40
2019-01-16T10:32:22.913Z,8.13
2019-01-16T10:35:30.707Z,9.20
2019-01-16T10:38:41.545Z,7.83
2019-01-16T10:41:55.713Z,9.50
2019-01-16T10:45:03.756Z,8.37
2019-01-16T10:48:14.756Z,9.17
2019-01-16T10:51:22.545Z,9.93
2019-01-16T10:54:45.121Z,10.40
2019-01-16T10:58:05.872Z,8.73
2019-01-16T11:01:10.969Z,9.13
2019-01-16T11:04:16.068Z,8.53
2019-01-16T11:07:29.610Z,10.13
2019-01-16T11:10:37.094Z,9.27
2019-01-16T11:14:00.065Z,10.37
2019-01-16T11:17:05.155Z,8.27
2019-01-16T11:20:19.040Z,7.60
2019-01-16T11:23:24.126Z,9.93
2019-01-16T11:26:35.125Z,8.53
2019-01-16T11:29:49.265Z,9.50
2019-01-16T11:32:54.320Z,8.87
2019-01-16T11:36:02.114Z,8.70
2019-01-16T11:39:16.048Z,11.17
2019-01-16T11:42:37.311Z,9.53
2019-01-16T11:45:45.110Z,11.53
2019-01-16T11:48:52.872Z,9.43
2019-01-16T11:52:16.002Z,9.83
2019-01-16T11:55:24.047Z,10.73
2019-01-16T11:58:29.115Z,11.77
2019-01-16T12:01:37.147Z,10.17
2019-01-16T12:04:48.820Z,11.53
2019-01-16T12:07:56.738Z,11.53
2019-01-16T12:11:01.989Z,10.80
2019-01-16T12:14:07.286Z,11.33
2019-01-16T12:17:29.765Z,14.73
2019-01-16T12:20:51.164Z,13.67
2019-01-16T12:24:08.229Z,11.40
2019-01-16T12:27:19.059Z,15.37
2019-01-16T12:30:33.373Z,14.63
2019-01-16T12:33:54.196Z,12.57
2019-01-16T12:36:59.290Z,14.70
2019-01-16T12:40:16.449Z,10.97
2019-01-16T12:43:27.578Z,13.57
2019-01-16T12:46:41.346Z,13.97
2019-01-16T12:49:55.144Z,11.13
2019-01-16T12:53:00.190Z,13.87
2019-01-16T12:56:08.193Z,13.70
2019-01-16T12:59:31.356Z,13.23
2019-01-16T13:02:42.656Z,11.90
2019-01-16T13:05:53.798Z,11.47
2019-01-16T13:09:10.824Z,9.10
2019-01-16T13:12:18.608Z,10.03
2019-01-16T13:15:29.500Z,12.83
2019-01-16T13:18:49.289Z,9.30
2019-01-16T13:22:06.044Z,9.23
2019-01-16T13:25:28.952Z,11.23
2019-01-16T13:28:50.055Z,11.87
2019-01-16T13:32:11.359Z,12.47
2019-01-16T13:35:25.197Z,11.70
2019-01-16T13:38:32.920Z,11.00
2019-01-16T13:41:40.947Z,10.70
2019-01-16T13:45:04.118Z,12.23
2019-01-16T13:48:09.362Z,14.23
2019-01-16T13:51:23.289Z,11.37
2019-01-16T13:54:28.377Z,11.67
2019-01-16T13:57:42.216Z,12.40
2019-01-16T14:00:59.280Z,11.00
2019-01-16T14:04:10.168Z,10.93
2019-01-16T14:07:17.763Z,10.47
2019-01-16T14:10:31.901Z,11.17
2019-01-16T14:13:37.011Z,11.67
2019-01-16T14:16:53.799Z,12.27
2019-01-16T14:20:01.605Z,11.63
2019-01-16T14:23:22.006Z,8.80
2019-01-16T14:26:27.092Z,10.63
2019-01-16T14:29:32.136Z,9.90
2019-01-16T14:32:37.207Z,9.60
2019-01-16T14:35:50.948Z,10.80
2019-01-16T14:39:13.676Z,10.73
2019-01-16T14:42:24.443Z,11.80
2019-01-16T14:45:41.321Z,8.77
2019-01-16T14:49:04.180Z,7.70
2019-01-16T14:52:09.440Z,11.57
2019-01-16T14:55:26.229Z,7.73
2019-01-16T14:58:37.178Z,11.10
2019-01-16T15:01:58.327Z,9.73
2019-01-16T15:05:06.345Z,9.20
2019-01-16T15:08:27.860Z,16.10
2019-01-16T15:11:35.973Z,8.50
2019-01-16T15:14:44.152Z,11.90
2019-01-16T15:17:49.200Z,9.90
2019-01-16T15:21:10.661Z,11.03
2019-01-16T15:24:15.736Z,9.43
2019-01-16T15:27:29.571Z,11.27
2019-01-16T15:30:46.424Z,7.80
2019-01-16T15:33:57.407Z,7.90
2019-01-16T15:37:02.490Z,10.50
2019-01-16T15:40:29.500Z,8.37
2019-01-16T15:43:43.608Z,8.17
2019-01-16T15:47:04.711Z,7.00
2019-01-16T15:50:12.028Z,6.67
2019-01-16T15:53:34.269Z,12.80
2019-01-16T15:56:39.860Z,9.70
2019-01-16T15:59:53.857Z,10.73
2019-01-16T16:02:58.913Z,7.90
2019-01-16T16:06:19.979Z,8.30
2019-01-16T16:09:25.051Z,9.83
2019-01-16T16:12:48.020Z,13.73
2019-01-16T16:15:53.077Z,7.00
2019-01-16T16:18:58.188Z,7.80
2019-01-16T16:22:12.244Z,12.77
2019-01-16T16:25:31.812Z,6.67
2019-01-16T16:28:36.866Z,10.23
2019-01-16T16:31:58.149Z,9.60
2019-01-16T16:35:21.064Z,8.27
2019-01-16T16:38:34.806Z,8.10
2019-01-16T16:41:54.724Z,11.37
2019-01-16T16:45:14.551Z,9.87
2019-01-16T16:48:28.461Z,9.83
2019-01-16T16:51:49.357Z,10.13
2019-01-16T16:54:54.454Z,7.33
2019-01-16T16:57:59.532Z,10.37
2019-01-16T17:01:04.616Z,8.80
2019-01-16T17:04:09.690Z,8.77
2019-01-16T17:07:20.723Z,8.73
2019-01-16T17:10:25.812Z,11.20
2019-01-16T17:13:33.560Z,6.70
2019-01-16T17:16:44.328Z,12.13
2019-01-16T17:19:49.382Z,17.93
2019-01-16T17:23:03.150Z,9.47
2019-01-16T17:26:23.052Z,11.27
2019-01-16T17:29:44.137Z,10.23
2019-01-16T17:33:01.257Z,9.07
2019-01-16T17:36:21.397Z,8.17
2019-01-16T17:39:32.327Z,10.07
2019-01-16T17:42:49.126Z,8.73
2019-01-16T17:46:00.002Z,8.20
2019-01-16T17:49:05.045Z,8.80
2019-01-16T17:52:25.240Z,8.53
2019-01-16T17:55:46.320Z,9.77
2019-01-16T17:59:07.711Z,12.93
2019-01-16T18:02:18.461Z,10.33
2019-01-16T18:05:23.523Z,9.97
2019-01-16T18:08:34.261Z,8.27
2019-01-16T18:11:42.024Z,7.87
2019-01-16T18:14:49.745Z,11.60
2019-01-16T18:17:54.912Z,9.70
2019-01-16T18:21:14.814Z,14.27
2019-01-16T18:24:22.356Z,11.13
2019-01-16T18:27:42.040Z,9.30
2019-01-16T18:30:49.656Z,11.23
2019-01-16T18:34:00.618Z,8.60
2019-01-16T18:37:08.932Z,8.60
2019-01-16T18:40:15.068Z,10.87
2019-01-16T18:43:20.139Z,12.07
2019-01-16T18:46:37.290Z,12.83
2019-01-16T18:49:42.332Z,11.30
2019-01-16T18:52:59.608Z,10.83
2019-01-16T18:56:04.796Z,9.97
2019-01-16T18:59:21.924Z,10.60
2019-01-16T19:02:27.000Z,12.20
2019-01-16T19:05:40.985Z,11.03
2019-01-16T19:08:46.092Z,14.77
2019-01-16T19:11:51.187Z,10.43
2019-01-16T19:14:56.346Z,12.03
2019-01-16T19:18:01.514Z,11.00
2019-01-16T19:21:09.001Z,10.10
2019-01-16T19:24:14.127Z,11.20
2019-01-16T19:27:24.680Z,11.37
2019-01-16T19:30:35.738Z,12.30
2019-01-16T19:33:40.895Z,11.13
2019-01-16T19:37:02.246Z,12.57
2019-01-16T19:40:26.141Z,13.80
2019-01-16T19:43:34.180Z,11.97
2019-01-16T19:46:39.339Z,11.17
2019-01-16T19:49:50.449Z,15.00
2019-01-16T19:53:11.280Z,11.90
2019-01-16T19:56:31.174Z,10.80
2019-01-16T19:59:38.863Z,10.03
2019-01-16T20:03:00.129Z,13.33
2019-01-16T20:06:05.502Z,9.90
2019-01-16T20:09:28.685Z,10.17
2019-01-16T20:12:48.896Z,10.97
2019-01-16T20:15:59.538Z,14.83
2019-01-16T20:19:13.309Z,12.33
2019-01-16T20:22:18.409Z,17.63
2019-01-16T20:25:39.584Z,14.37
2019-01-16T20:28:44.702Z,11.43
2019-01-16T20:32:07.865Z,14.20
2019-01-16T20:35:15.764Z,12.63
2019-01-16T20:38:20.877Z,14.47
2019-01-16T20:41:34.765Z,12.00
2019-01-16T20:44:42.614Z,9.90
2019-01-16T20:47:56.475Z,12.87
2019-01-16T20:51:10.608Z,11.43
2019-01-16T20:54:18.478Z,11.83
2019-01-16T20:57:23.578Z,14.00
2019-01-16T21:00:43.572Z,9.53
2019-01-16T21:04:06.549Z,10.97
2019-01-16T21:07:17.314Z,12.03
2019-01-16T21:10:22.428Z,14.00
2019-01-16T21:13:39.553Z,13.23
2019-01-16T21:16:45.897Z,11.33
2019-01-16T21:19:51.016Z,13.63
2019-01-16T21:22:58.567Z,12.03
2019-01-16T21:26:06.331Z,14.93
2019-01-16T21:29:14.327Z,13.53
2019-01-16T21:32:22.132Z,11.53
2019-01-16T21:35:30.185Z,15.67
2019-01-16T21:38:50.349Z,11.00
2019-01-16T21:42:11.716Z,12.47
2019-01-16T21:45:16.786Z,13.77
2019-01-16T21:48:30.666Z,10.47
2019-01-16T21:51:35.741Z,10.87
2019-01-16T21:54:46.640Z,11.57
2019-01-16T21:57:57.170Z,11.17
2019-01-16T22:01:16.732Z,13.50
2019-01-16T22:04:27.372Z,12.33
2019-01-16T22:07:41.096Z,12.73
2019-01-16T22:10:48.832Z,11.70
2019-01-16T22:14:00.056Z,10.63
2019-01-16T22:17:10.915Z,14.90
2019-01-16T22:20:18.754Z,13.37
2019-01-16T22:23:26.436Z,15.40
2019-01-16T22:26:33.949Z,13.10
2019-01-16T22:29:41.404Z,13.43
2019-01-16T22:32:49.145Z,13.33
2019-01-16T22:36:05.893Z,14.83
2019-01-16T22:39:27.232Z,13.23
2019-01-16T22:42:38.310Z,10.67
2019-01-16T22:45:43.420Z,14.27
2019-01-16T22:48:54.499Z,13.63
2019-01-16T22:52:11.264Z,12.00
2019-01-16T22:55:18.985Z,14.83
2019-01-16T22:58:27.008Z,14.87
2019-01-16T23:01:43.949Z,13.70
2019-01-16T23:04:54.684Z,13.77
2019-01-16T23:07:59.751Z,15.50
2019-01-16T23:11:22.897Z,14.13
2019-01-16T23:14:27.956Z,14.10
2019-01-16T23:17:38.556Z,13.00
2019-01-16T23:20:49.254Z,14.87
2019-01-16T23:24:09.220Z,15.60
2019-01-16T23:27:20.245Z,16.33
2019-01-16T23:30:25.345Z,13.57
2019-01-16T23:33:30.392Z,14.90
2019-01-16T23:36:35.514Z,13.70
2019-01-16T23:39:55.688Z,14.60
2019-01-16T23:43:03.780Z,12.40
2019-01-16T23:46:11.616Z,14.10
2019-01-16T23:49:33.058Z,16.57
2019-01-16T23:52:39.707Z,15.10
2019-01-16T23:55:47.435Z,15.40
2019-01-16T23:58:52.513Z,13.97
